Wyoming, Ohio
Current Conditions -  °F | °C
As of 8:53 PM on Friday 19 Dec 2014 (Local Time) from KHAO Reporting Station
Overcast Overcast  
Wind Chill: -1°   Ceiling: 2400
Heat Index: -1°   Visibility: 10mi
Dew Point: -4°   Wind: 0mph
Humidity: 76%   Direction: NA
Pressure: 30.31"   Gusts: NA
Location:  39.246°N, 84.538°W
Report Text: KHAO 200153Z AUTO 00000KT 10SM OVC024 M01/M04 A3031 RMK AO2 SLP271 T10061044
Loading
Personal Weather Stations






























Interactive Weather Map New forecast layout! Learn more

10-Day Weather Forecast

Advertisements
Track Severe Weather on mobile